Time;durP1;ratioP1;P1;durP2;ratioP2;P2;SDS_P1;SDS_P2;PMS_P1;PMS_P2;Temp;Humidity;BMP_temperature;BMP_pressure;BME280_temperature;BME280_humidity;BME280_pressure;Samples;Min_cycle;Max_cycle;Signal;HPM_P1;HPM_P2
2023/03/04 00:09:12;;;;;;;12.37;4.90;;;;;;;2.35;47.53;101421.59;20487380;29;20636;-83
2023/03/04 00:19:14;;;;;;;9.57;3.50;;;;;;;2.64;47.57;101411.03;20478142;29;20286;-82
2023/03/04 00:29:17;;;;;;;12.40;3.70;;;;;;;2.60;47.00;101409.88;20443159;29;20200;-82
2023/03/04 00:39:19;;;;;;;14.87;3.50;;;;;;;2.96;47.02;101405.53;20436221;29;20277;-83
2023/03/04 00:49:21;;;;;;;11.77;3.93;;;;;;;2.55;48.09;101384.75;20479533;29;20497;-83
2023/03/04 00:59:23;;;;;;;13.47;3.53;;;;;;;2.35;48.42;101390.94;20477312;29;20263;-83
2023/03/04 01:09:25;;;;;;;12.33;2.53;;;;;;;2.56;48.27;101383.63;20475626;29;20239;-82
2023/03/04 01:19:28;;;;;;;9.63;2.80;;;;;;;2.72;47.90;101385.47;20449321;29;20289;-83
2023/03/04 01:29:30;;;;;;;12.47;3.07;;;;;;;1.90;49.59;101383.72;20450329;29;20203;-84
2023/03/04 01:39:33;;;;;;;8.03;2.43;;;;;;;2.88;47.51;101367.81;20471737;29;20352;-81
2023/03/04 01:49:35;;;;;;;13.20;2.60;;;;;;;2.44;48.38;101362.34;20457400;28;20500;-83
2023/03/04 01:59:37;;;;;;;9.33;2.87;;;;;;;2.81;47.40;101364.41;20465923;29;20694;-83
2023/03/04 02:09:40;;;;;;;12.53;2.73;;;;;;;1.99;50.14;101364.63;20451440;29;20235;-81
2023/03/04 02:19:50;;;;;;;10.17;2.27;;;;;;;1.87;50.41;101355.56;20455343;29;20219;-84
2023/03/04 02:29:52;;;;;;;7.57;2.17;;;;;;;2.03;49.95;101349.06;20461727;29;20210;-83
2023/03/04 02:39:54;;;;;;;12.23;2.53;;;;;;;2.79;47.79;101339.59;20475526;29;20199;-81
2023/03/04 02:49:56;;;;;;;14.57;3.10;;;;;;;2.07;50.27;101337.13;20479547;29;20869;-81
2023/03/04 02:59:58;;;;;;;8.40;1.90;;;;;;;2.12;49.81;101321.59;20465938;29;20200;-83
2023/03/04 03:10:03;;;;;;;12.90;2.40;;;;;;;3.01;47.65;101317.16;20476698;29;20326;-84
2023/03/04 03:20:06;;;;;;;11.17;1.83;;;;;;;2.96;47.93;101310.69;20457121;29;20250;-84
2023/03/04 03:30:12;;;;;;;12.73;2.47;;;;;;;2.11;49.75;101312.38;20432325;29;20203;-82
2023/03/04 03:40:14;;;;;;;18.43;2.47;;;;;;;2.45;49.40;101296.28;20494355;29;20199;-82
2023/03/04 03:50:17;;;;;;;13.20;2.03;;;;;;;2.74;48.22;101296.81;20442784;29;20685;-81
2023/03/04 04:00:20;;;;;;;5.43;1.80;;;;;;;1.90;50.61;101304.91;20504810;29;20250;-81
2023/03/04 04:10:24;;;;;;;8.23;1.50;;;;;;;2.18;49.63;101296.28;20449023;29;20235;-82
2023/03/04 04:20:26;;;;;;;9.17;1.57;;;;;;;2.71;48.47;101292.63;20465060;29;20278;-82
2023/03/04 04:30:28;;;;;;;9.13;2.10;;;;;;;2.02;50.73;101291.69;20473213;29;20215;-82
2023/03/04 04:40:30;;;;;;;5.77;1.67;;;;;;;3.14;47.87;101288.78;20476946;29;20203;-81
2023/03/04 04:50:32;;;;;;;6.10;1.83;;;;;;;2.15;50.47;101307.16;20479172;29;20251;-81
2023/03/04 05:00:35;;;;;;;7.90;1.60;;;;;;;2.68;49.13;101309.06;20452352;29;20876;-81
2023/03/04 05:10:37;;;;;;;7.43;1.60;;;;;;;1.68;51.94;101307.69;20469171;29;20691;-81
2023/03/04 05:20:39;;;;;;;7.60;1.63;;;;;;;1.44;52.55;101309.88;20461003;29;20195;-81
2023/03/04 05:30:42;;;;;;;8.83;1.40;;;;;;;2.16;50.43;101290.19;20464182;28;20219;-82
2023/03/04 05:40:45;;;;;;;6.53;1.27;;;;;;;2.04;50.38;101295.88;20485424;29;20199;-82
2023/03/04 05:50:55;;;;;;;8.20;1.30;;;;;;;2.51;49.96;101294.41;20468127;29;20216;-80
2023/03/04 06:00:59;;;;;;;8.67;1.57;;;;;;;2.54;49.79;101294.72;20475130;28;20624;-80
2023/03/04 06:11:03;;;;;;;6.50;1.57;;;;;;;2.44;50.75;101303.81;20486543;29;20231;-82
2023/03/04 06:21:05;;;;;;;9.03;1.90;;;;;;;2.68;50.49;101312.69;20492779;29;20225;-83
2023/03/04 06:31:07;;;;;;;10.60;1.53;;;;;;;1.80;52.07;101327.03;20483517;28;20223;-82
2023/03/04 06:41:16;;;;;;;11.27;1.80;;;;;;;2.84;49.45;101319.25;20510437;28;20196;-81
2023/03/04 06:51:20;;;;;;;9.20;1.73;;;;;;;3.15;49.19;101323.97;20489891;29;20266;-80
2023/03/04 07:01:24;;;;;;;8.33;2.10;;;;;;;2.65;50.95;101334.69;20460803;28;20734;-81
2023/03/04 07:11:26;;;;;;;7.93;1.70;;;;;;;2.41;51.49;101339.75;20475675;28;20296;-83
2023/03/04 07:21:29;;;;;;;9.17;1.57;;;;;;;2.03;52.90;101349.06;20464103;28;20267;-80
2023/03/04 07:31:33;;;;;;;6.63;1.63;;;;;;;1.34;56.43;101359.84;20457659;28;20223;-80
2023/03/04 07:41:36;;;;;;;10.37;1.57;;;;;;;1.77;56.08;101372.97;20445785;28;20219;-79
2023/03/04 07:51:38;;;;;;;7.90;2.07;;;;;;;3.07;55.23;101355.13;20458129;28;20258;-80
2023/03/04 08:01:41;;;;;;;5.50;1.77;;;;;;;2.86;54.65;101358.03;20453762;29;20251;-83
2023/03/04 08:11:45;;;;;;;9.07;1.53;;;;;;;3.16;54.82;101352.69;20459126;28;20219;-84
2023/03/04 08:21:47;;;;;;;6.17;1.57;;;;;;;2.64;55.05;101349.72;20444411;28;20651;-84
2023/03/04 08:31:51;;;;;;;9.37;1.40;;;;;;;2.98;54.85;101348.38;20476218;29;20211;-81
2023/03/04 08:41:53;;;;;;;5.40;1.67;;;;;;;2.34;54.86;101347.44;20472129;29;20191;-82
2023/03/04 08:51:55;;;;;;;4.87;1.13;;;;;;;3.50;52.27;101336.44;20456646;29;20251;-82
2023/03/04 09:01:58;;;;;;;6.50;1.63;;;;;;;3.61;52.60;101338.19;20456539;28;20250;-82
2023/03/04 09:12:00;;;;;;;6.30;2.50;;;;;;;2.84;55.05;101343.50;20457010;29;20227;-82
2023/03/04 09:22:03;;;;;;;5.83;2.27;;;;;;;3.48;53.26;101335.88;20455915;29;21193;-82
2023/03/04 09:32:05;;;;;;;3.40;1.57;;;;;;;2.50;56.56;101342.88;20469335;29;20359;-82
2023/03/04 09:42:10;;;;;;;2.73;0.80;;;;;;;2.73;57.49;101335.03;20473394;28;20297;-82
2023/03/04 09:52:26;;;;;;;2.43;1.20;;;;;;;2.38;59.92;101346.69;20458257;29;20211;-82
2023/03/04 10:02:47;;;;;;;2.67;1.37;;;;;;;2.97;61.08;101335.53;20441805;29;20589;-82
2023/03/04 10:12:50;;;;;;;5.73;2.83;;;;;;;3.37;59.18;101332.19;20467028;29;20224;-82
2023/03/04 10:23:00;;;;;;;7.83;3.40;;;;;;;4.02;57.61;101325.22;20452527;29;20500;-83
2023/03/04 10:33:10;;;;;;;3.97;2.20;;;;;;;3.91;56.89;101311.50;20442867;29;20218;-82
2023/03/04 10:43:20;;;;;;;5.50;3.07;;;;;;;4.05;56.89;101321.91;20472243;28;20667;-84
2023/03/04 10:53:40;;;;;;;9.13;3.60;;;;;;;3.43;61.33;101313.53;20439695;28;20345;-82
2023/03/04 11:03:46;;;;;;;5.47;3.43;;;;;;;3.77;60.70;101308.38;20455217;29;20804;-80
2023/03/04 11:13:56;;;;;;;5.60;3.60;;;;;;;3.94;59.62;101308.16;20451639;29;20648;-82
2023/03/04 11:24:01;;;;;;;5.07;3.03;;;;;;;4.51;59.37;101294.91;20479688;28;20247;-81
2023/03/04 11:34:25;;;;;;;3.77;2.43;;;;;;;4.27;60.10;101290.13;20464025;28;20321;-82
2023/03/04 11:44:28;;;;;;;4.23;3.53;;;;;;;4.52;58.68;101264.97;20462141;29;20228;-82
2023/03/04 11:54:46;;;;;;;3.23;2.23;;;;;;;4.44;59.31;101262.75;20482398;29;20247;-82
2023/03/04 12:05:10;;;;;;;4.97;1.70;;;;;;;4.08;59.61;101254.28;20454350;28;20199;-80
2023/03/04 12:15:18;;;;;;;3.77;1.60;;;;;;;4.19;58.94;101244.84;20448514;29;20523;-82
2023/03/04 12:25:33;;;;;;;4.07;1.77;;;;;;;4.47;59.15;101229.50;20457482;29;20191;-81
2023/03/04 12:36:01;;;;;;;2.90;1.30;;;;;;;4.17;62.41;101215.50;20467683;28;20336;-82
2023/03/04 12:46:13;;;;;;;2.13;1.27;;;;;;;3.25;64.89;101210.72;20454706;28;20203;-81
2023/03/04 12:56:29;;;;;;;2.80;1.90;;;;;;;3.49;65.29;101200.78;20465307;29;20885;-81
2023/03/04 13:06:53;;;;;;;7.40;3.43;;;;;;;4.23;64.16;101200.41;20479415;29;20577;-82
2023/03/04 13:17:01;;;;;;;4.30;3.17;;;;;;;4.94;61.38;101177.94;20494461;28;20230;-81
2023/03/04 13:27:41;;;;;;;4.97;2.40;;;;;;;4.31;62.61;101183.06;20490996;28;20195;-79
2023/03/04 13:37:56;;;;;;;10.60;7.23;;;;;;;4.32;62.49;101169.94;20484959;29;20222;-81
2023/03/04 13:47:59;;;;;;;1.77;1.53;;;;;;;3.18;64.65;101149.59;20455262;29;20258;-82
2023/03/04 13:58:13;;;;;;;3.17;1.80;;;;;;;4.85;58.84;101148.88;20464587;28;20633;-81
2023/03/04 14:08:17;;;;;;;2.87;1.90;;;;;;;4.35;59.16;101135.84;20453622;29;20281;-79
2023/03/04 14:18:20;;;;;;;2.87;1.47;;;;;;;4.67;57.27;101127.09;20488772;28;20623;-81
2023/03/04 14:28:22;;;;;;;2.80;0.97;;;;;;;4.72;56.65;101118.72;20460610;29;20200;-83
2023/03/04 14:38:31;;;;;;;2.43;1.43;;;;;;;4.63;57.19;101112.03;20448981;29;20254;-79
2023/03/04 14:48:34;;;;;;;5.73;1.80;;;;;;;4.48;57.32;101105.34;20438756;29;20279;-77
2023/03/04 14:58:38;;;;;;;3.83;1.97;;;;;;;4.01;57.46;101096.41;20459030;28;20741;-79
2023/03/04 15:08:41;;;;;;;3.43;1.83;;;;;;;4.50;56.44;101094.69;20455575;29;20545;-78
2023/03/04 15:19:28;;;;;;;8.90;3.17;;;;;;;4.30;54.81;101086.38;20451393;29;20223;-78
2023/03/04 15:29:30;;;;;;;5.23;1.30;;;;;;;4.31;53.10;101082.44;20465699;28;20199;-81
2023/03/04 15:39:32;;;;;;;7.10;1.30;;;;;;;4.05;51.61;101089.16;20472980;29;20219;-83
2023/03/04 15:49:35;;;;;;;7.00;1.70;;;;;;;4.08;51.52;101080.22;20484216;29;20203;-80
2023/03/04 15:59:37;;;;;;;5.80;1.20;;;;;;;3.67;51.83;101083.00;20469549;28;20286;-82
2023/03/04 16:09:39;;;;;;;7.17;1.37;;;;;;;4.45;49.60;101069.56;20462381;28;20231;-84
2023/03/04 16:19:41;;;;;;;7.53;1.40;;;;;;;4.03;50.22;101075.47;20474860;28;20234;-82
2023/03/04 16:29:44;;;;;;;5.27;1.20;;;;;;;3.85;49.74;101067.66;20476641;29;20502;-82
2023/03/04 16:39:48;;;;;;;6.00;2.07;;;;;;;4.51;49.33;101067.56;20467825;28;20266;-82
2023/03/04 16:49:50;;;;;;;6.17;1.40;;;;;;;4.04;49.03;101084.69;20459209;28;20275;-82
2023/03/04 16:59:53;;;;;;;3.30;0.90;;;;;;;3.87;48.57;101076.56;20465899;28;20699;-83
2023/03/04 17:09:55;;;;;;;4.63;1.03;;;;;;;4.02;47.25;101075.75;20478532;29;20251;-83
2023/03/04 17:19:58;;;;;;;4.40;1.20;;;;;;;3.96;47.98;101085.25;20480206;29;20247;-83
2023/03/04 17:30:05;;;;;;;9.73;4.47;;;;;;;5.04;45.88;101074.38;20490682;28;20195;-79
2023/03/04 17:40:12;;;;;;;4.93;1.47;;;;;;;3.72;49.39;101088.56;20491304;29;20275;-83
2023/03/04 17:50:15;;;;;;;6.80;2.90;;;;;;;4.69;46.99;101092.13;20472748;28;20250;-81
2023/03/04 18:00:19;;;;;;;5.53;3.20;;;;;;;4.42;47.62;101095.28;20485756;29;20251;-80
2023/03/04 18:10:21;;;;;;;7.83;2.97;;;;;;;4.13;47.86;101091.38;20466008;29;20219;-79
2023/03/04 18:20:23;;;;;;;7.97;1.77;;;;;;;4.14;47.09;101096.72;20468228;29;20663;-80
2023/03/04 18:30:26;;;;;;;9.87;2.10;;;;;;;4.47;47.09;101089.69;20490735;28;20592;-82
2023/03/04 18:40:28;;;;;;;10.70;2.60;;;;;;;4.20;47.99;101091.97;20479948;28;20500;-79
2023/03/04 18:50:30;;;;;;;7.43;2.03;;;;;;;3.86;48.98;101086.91;20480334;28;20269;-78
2023/03/04 19:00:32;;;;;;;6.90;2.23;;;;;;;4.52;47.79;101092.47;20495492;28;20258;-78
2023/03/04 19:10:35;;;;;;;5.73;1.90;;;;;;;4.32;47.48;101100.91;20454554;29;21487;-81
2023/03/04 19:20:39;;;;;;;6.87;2.10;;;;;;;3.94;47.00;101107.88;20468272;29;20255;-82
2023/03/04 19:30:42;;;;;;;7.30;1.87;;;;;;;4.00;46.17;101108.69;20476295;29;20188;-82
2023/03/04 19:40:45;;;;;;;5.60;1.63;;;;;;;3.99;45.58;101116.25;20469633;29;20902;-83
2023/03/04 19:50:48;;;;;;;7.17;2.00;;;;;;;3.37;46.23;101120.06;20463025;28;20220;-76
2023/03/04 20:00:53;;;;;;;7.07;2.07;;;;;;;3.86;46.00;101117.63;20483491;28;20219;-80
2023/03/04 20:10:55;;;;;;;13.17;3.60;;;;;;;4.11;45.44;101122.38;20459942;29;20235;-84
2023/03/04 20:20:58;;;;;;;6.43;1.40;;;;;;;3.39;46.90;101117.00;20449612;29;20278;-88
2023/03/04 20:31:19;;;;;;;6.07;2.63;;;;;;;4.08;45.44;101117.38;20459781;29;20210;-84
2023/03/04 20:41:23;;;;;;;6.63;1.77;;;;;;;4.06;46.18;101121.56;20447767;29;20321;-82
2023/03/04 20:51:25;;;;;;;5.77;1.67;;;;;;;3.28;47.77;101120.88;20470869;29;20202;-85
2023/03/04 21:01:29;;;;;;;6.47;1.60;;;;;;;3.75;46.29;101120.69;20466470;28;20231;-83
2023/03/04 21:11:38;;;;;;;7.83;3.47;;;;;;;3.98;46.02;101117.38;20478770;29;20263;-83
2023/03/04 21:21:41;;;;;;;6.60;1.70;;;;;;;3.75;47.64;101110.38;20485649;29;20215;-84
2023/03/04 21:32:25;;;;;;;4.43;1.87;;;;;;;3.36;48.33;101111.97;20455881;29;20199;-82
2023/03/04 21:42:27;;;;;;;9.57;1.53;;;;;;;3.60;48.72;101109.50;20472498;28;20548;-83
2023/03/04 21:52:30;;;;;;;3.93;1.67;;;;;;;3.44;48.20;101114.25;20465342;29;20195;-86
2023/03/04 22:02:33;;;;;;;3.27;1.20;;;;;;;3.57;47.79;101096.97;20492655;29;20527;-83
2023/03/04 22:12:35;;;;;;;2.70;0.90;;;;;;;3.14;45.47;101096.28;20458124;29;20256;-87
2023/03/04 22:22:37;;;;;;;2.73;0.83;;;;;;;3.52;43.70;101085.78;20473716;29;20690;-86
2023/03/04 22:32:43;;;;;;;3.10;0.70;;;;;;;3.11;44.74;101084.81;20472196;29;20302;-86
2023/03/04 22:42:46;;;;;;;3.27;0.60;;;;;;;3.09;43.29;101073.94;20486880;29;20274;-87
2023/03/04 22:52:48;;;;;;;1.33;0.50;;;;;;;3.12;42.39;101069.78;20495853;28;20199;-83
2023/03/04 23:02:51;;;;;;;1.83;0.63;;;;;;;3.67;41.36;101052.28;20466018;29;20207;-81
2023/03/04 23:12:53;;;;;;;2.90;0.97;;;;;;;3.32;43.07;101043.88;20473259;28;20228;-85
2023/03/04 23:22:55;;;;;;;5.17;0.67;;;;;;;3.77;41.66;101043.91;20482707;28;20248;-85
2023/03/04 23:32:57;;;;;;;3.53;0.70;;;;;;;3.87;42.21;101043.91;20470542;29;20203;-83
2023/03/04 23:43:00;;;;;;;3.23;0.70;;;;;;;3.64;44.25;101036.09;20472473;29;20195;-85
2023/03/04 23:53:02;;;;;;;5.50;0.90;;;;;;;3.26;43.71;101039.41;20473485;29;20199;-86
